Time;durP1;ratioP1;P1;durP2;ratioP2;P2;SDS_P1;SDS_P2;PMS_P1;PMS_P2;Temp;Humidity;BMP_temperature;BMP_pressure;BME280_temperature;BME280_humidity;BME280_pressure;Samples;Min_cycle;Max_cycle;Signal;HPM_P1;HPM_P2
2022/01/08 00:02:03;;;;;;;35.00;12.50;;;;;;;;;;5029503;28;20049;-68
2022/01/08 00:04:29;;;;;;;28.63;11.63;;;;;;;;;;5029523;28;20299;-68
2022/01/08 00:06:56;;;;;;;30.70;12.27;;;;;;;;;;5028289;28;20339;-68
2022/01/08 00:09:22;;;;;;;23.87;10.67;;;;;;;;;;5028278;28;20292;-68
2022/01/08 00:11:48;;;;;;;29.30;11.67;;;;;;;;;;5027958;28;20292;-68
2022/01/08 00:14:15;;;;;;;31.17;12.70;;;;;;;;;;5027874;28;20300;-68
2022/01/08 00:16:42;;;;;;;24.00;10.50;;;;;;;;;;5029007;28;20300;-68
2022/01/08 00:19:08;;;;;;;28.27;11.13;;;;;;;;;;5029297;28;20292;-68
2022/01/08 00:21:34;;;;;;;29.40;11.83;;;;;;;;;;5028935;28;20371;-68
2022/01/08 00:24:01;;;;;;;24.47;10.53;;;;;;;;;;5027961;28;20362;-68
2022/01/08 00:26:27;;;;;;;25.23;11.33;;;;;;;;;;5028120;28;20316;-68
2022/01/08 00:28:53;;;;;;;26.87;12.17;;;;;;;;;;5027621;28;20628;-68
2022/01/08 00:31:19;;;;;;;23.97;13.20;;;;;;;;;;5029431;28;20283;-68
2022/01/08 00:33:47;;;;;;;33.00;13.60;;;;;;;;;;5027087;28;20042;-68
2022/01/08 00:36:13;;;;;;;35.20;14.03;;;;;;;;;;5028957;28;20049;-68
2022/01/08 00:38:39;;;;;;;33.97;14.70;;;;;;;;;;5061056;28;20806;-68
2022/01/08 00:41:05;;;;;;;33.40;15.00;;;;;;;;;;5059824;28;20292;-68
2022/01/08 00:43:31;;;;;;;29.27;14.17;;;;;;;;;;5027421;28;20350;-68
2022/01/08 00:45:57;;;;;;;28.50;13.10;;;;;;;;;;5028321;28;20384;-68
2022/01/08 00:48:23;;;;;;;35.63;15.50;;;;;;;;;;5027690;28;20292;-68
2022/01/08 00:50:52;;;;;;;38.13;14.90;;;;;;;;;;5027384;28;20288;-68
2022/01/08 00:53:18;;;;;;;36.67;15.50;;;;;;;;;;5028792;28;20288;-68
2022/01/08 00:55:44;;;;;;;28.90;15.53;;;;;;;;;;5010507;28;20048;-69
2022/01/08 00:58:10;;;;;;;31.23;16.53;;;;;;;;;;5028381;28;20298;-68
2022/01/08 01:00:36;;;;;;;30.87;16.10;;;;;;;;;;5027041;28;20285;-68
2022/01/08 01:03:02;;;;;;;40.93;18.67;;;;;;;;;;5027206;28;20296;-68
2022/01/08 01:05:28;;;;;;;34.07;18.17;;;;;;;;;;5027353;28;20316;-69
2022/01/08 01:07:54;;;;;;;48.57;20.97;;;;;;;;;;5028730;28;20643;-69
2022/01/08 01:10:20;;;;;;;40.30;19.70;;;;;;;;;;5028835;28;20315;-68
2022/01/08 01:12:47;;;;;;;44.67;20.20;;;;;;;;;;5030899;28;20075;-68
2022/01/08 01:15:15;;;;;;;47.97;21.47;;;;;;;;;;5030964;28;20303;-69
2022/01/08 01:17:42;;;;;;;40.97;20.37;;;;;;;;;;5031141;28;20292;-68
2022/01/08 01:20:09;;;;;;;39.03;21.03;;;;;;;;;;5014780;28;20296;-68
2022/01/08 01:22:46;;;;;;;46.90;21.93;;;;;;;;;;5031741;28;20304;-68
2022/01/08 01:25:16;;;;;;;58.23;26.10;;;;;;;;;;5030956;28;20339;-68
2022/01/08 01:28:05;;;;;;;47.30;23.67;;;;;;;;;;5030105;28;20354;-68
2022/01/08 01:49:16;;;;;;;42.57;20.03;;;;;;;;;;5031656;28;20327;-68
2022/01/08 01:51:43;;;;;;;48.57;22.77;;;;;;;;;;5030255;28;20296;-68
2022/01/08 01:54:09;;;;;;;39.07;18.53;;;;;;;;;;5031936;28;20383;-68
2022/01/08 01:56:35;;;;;;;34.27;18.17;;;;;;;;;;5030492;28;21793;-68
2022/01/08 01:59:01;;;;;;;41.93;20.63;;;;;;;;;;5032093;28;20284;-68
2022/01/08 02:01:28;;;;;;;33.20;17.37;;;;;;;;;;5030440;28;20284;-68
2022/01/08 02:03:53;;;;;;;44.33;19.27;;;;;;;;;;5030439;28;20053;-67
2022/01/08 02:06:20;;;;;;;33.83;15.13;;;;;;;;;;5032054;28;20312;-68
2022/01/08 02:08:46;;;;;;;32.27;16.13;;;;;;;;;;5030527;28;20046;-68
2022/01/08 02:11:12;;;;;;;29.97;16.17;;;;;;;;;;5030145;28;20300;-67
2022/01/08 02:13:38;;;;;;;26.67;14.13;;;;;;;;;;5031217;28;20287;-67
2022/01/08 02:16:06;;;;;;;27.43;12.23;;;;;;;;;;5030338;28;20300;-68
2022/01/08 02:18:33;;;;;;;27.80;12.43;;;;;;;;;;5031393;28;20284;-67
2022/01/08 02:21:00;;;;;;;31.43;13.90;;;;;;;;;;5031564;28;20284;-67
2022/01/08 02:23:26;;;;;;;25.80;12.50;;;;;;;;;;5031582;28;20296;-68
2022/01/08 02:26:01;;;;;;;24.07;12.73;;;;;;;;;;5030069;28;20320;-67
2022/01/08 02:28:27;;;;;;;27.23;11.17;;;;;;;;;;5031299;28;20280;-67
2022/01/08 02:30:53;;;;;;;23.63;11.70;;;;;;;;;;5031113;28;20631;-68
2022/01/08 02:33:23;;;;;;;24.00;11.97;;;;;;;;;;5031232;28;20060;-68
2022/01/08 02:35:49;;;;;;;26.30;12.87;;;;;;;;;;5031630;28;20046;-68
2022/01/08 02:38:15;;;;;;;29.07;12.70;;;;;;;;;;5030803;28;20375;-68
2022/01/08 02:40:50;;;;;;;24.63;10.80;;;;;;;;;;5030889;28;20041;-68
2022/01/08 02:43:16;;;;;;;37.37;14.40;;;;;;;;;;5031107;28;20315;-67
2022/01/08 02:45:42;;;;;;;22.23;11.53;;;;;;;;;;5035505;28;20307;-68
2022/01/08 02:48:08;;;;;;;25.80;10.53;;;;;;;;;;5051137;28;20843;-68
2022/01/08 02:50:34;;;;;;;24.80;11.00;;;;;;;;;;5049246;28;20048;-68
2022/01/08 02:53:00;;;;;;;31.63;12.70;;;;;;;;;;5049496;28;20295;-67
2022/01/08 02:55:26;;;;;;;30.73;12.17;;;;;;;;;;5050839;28;20275;-67
2022/01/08 02:57:52;;;;;;;27.73;12.57;;;;;;;;;;5050673;28;20465;-67
2022/01/08 03:00:19;;;;;;;28.17;11.70;;;;;;;;;;5045236;28;20407;-68
2022/01/08 03:02:46;;;;;;;38.67;13.60;;;;;;;;;;5030580;28;20295;-67
2022/01/08 03:05:13;;;;;;;30.53;12.70;;;;;;;;;;5030844;28;20316;-68
2022/01/08 03:07:39;;;;;;;28.33;12.57;;;;;;;;;;5030845;28;20338;-67
2022/01/08 03:10:10;;;;;;;33.90;13.87;;;;;;;;;;5030038;28;20298;-67
2022/01/08 03:12:43;;;;;;;24.67;14.33;;;;;;;;;;5030527;28;20289;-67
2022/01/08 03:15:14;;;;;;;32.75;15.65;;;;;;;;;;5030467;28;20300;-68
2022/01/08 03:17:40;;;;;;;30.93;14.60;;;;;;;;;;5029808;28;20054;-67
2022/01/08 03:20:10;;;;;;;34.47;14.83;;;;;;;;;;5030425;28;20319;-67
2022/01/08 03:22:36;;;;;;;34.87;15.60;;;;;;;;;;5030179;28;20805;-67
2022/01/08 03:25:03;;;;;;;42.57;17.30;;;;;;;;;;5029965;28;20332;-68
2022/01/08 03:27:29;;;;;;;40.17;16.47;;;;;;;;;;5029223;28;20300;-67
2022/01/08 03:29:55;;;;;;;33.40;16.43;;;;;;;;;;5029758;28;20691;-67
2022/01/08 03:32:21;;;;;;;40.00;17.73;;;;;;;;;;5029825;28;20069;-67
2022/01/08 03:34:47;;;;;;;38.97;16.90;;;;;;;;;;5029593;28;20319;-67
2022/01/08 03:37:13;;;;;;;35.27;16.90;;;;;;;;;;5029619;28;20288;-67
2022/01/08 03:39:39;;;;;;;55.83;20.27;;;;;;;;;;5029887;28;20045;-67
2022/01/08 03:42:06;;;;;;;31.20;16.23;;;;;;;;;;5028886;28;20056;-67
2022/01/08 03:44:32;;;;;;;30.90;18.10;;;;;;;;;;5029826;28;20339;-68
2022/01/08 03:47:21;;;;;;;41.03;19.63;;;;;;;;;;5027985;28;20296;-67
2022/01/08 03:49:44;;;;;;;40.77;17.90;;;;;;;;;;5029570;28;20049;-68
2022/01/08 03:52:12;;;;;;;44.27;21.07;;;;;;;;;;5030186;28;20721;-67
2022/01/08 03:54:38;;;;;;;40.13;18.07;;;;;;;;;;5029615;28;20103;-68
2022/01/08 03:57:04;;;;;;;38.07;20.07;;;;;;;;;;5028142;28;20299;-68
2022/01/08 03:59:30;;;;;;;44.40;18.93;;;;;;;;;;5029295;28;20375;-68
2022/01/08 04:01:56;;;;;;;43.77;18.80;;;;;;;;;;5029451;28;20299;-67
2022/01/08 04:04:22;;;;;;;36.47;17.50;;;;;;;;;;5028295;28;20284;-68
2022/01/08 04:06:48;;;;;;;35.63;18.37;;;;;;;;;;5027989;28;20656;-67
2022/01/08 04:09:15;;;;;;;39.43;16.87;;;;;;;;;;5027644;28;20049;-67
2022/01/08 04:11:41;;;;;;;37.90;16.27;;;;;;;;;;5029224;28;20901;-68
2022/01/08 04:14:07;;;;;;;40.83;18.07;;;;;;;;;;5029497;28;20334;-68
2022/01/08 04:16:36;;;;;;;38.97;16.60;;;;;;;;;;5027731;28;20299;-68
2022/01/08 04:19:03;;;;;;;31.77;16.20;;;;;;;;;;5028429;28;20712;-67
2022/01/08 04:23:59;;;;;;;34.13;16.37;;;;;;;;;;5029227;28;20859;-68
2022/01/08 04:26:25;;;;;;;36.90;16.47;;;;;;;;;;5028228;28;20316;-67
2022/01/08 04:28:55;;;;;;;31.37;15.50;;;;;;;;;;5028321;28;20380;-67
2022/01/08 04:31:22;;;;;;;34.53;16.20;;;;;;;;;;5028079;28;20295;-67
2022/01/08 04:33:48;;;;;;;34.23;16.20;;;;;;;;;;5028192;28;20300;-67
2022/01/08 04:36:14;;;;;;;39.73;17.73;;;;;;;;;;5010931;28;20856;-67
2022/01/08 04:38:40;;;;;;;35.50;16.80;;;;;;;;;;5029228;28;20877;-68
2022/01/08 04:41:06;;;;;;;38.20;17.23;;;;;;;;;;5028904;28;20304;-68
2022/01/08 04:43:36;;;;;;;33.90;14.83;;;;;;;;;;5028749;28;20646;-68
2022/01/08 04:46:02;;;;;;;29.53;13.90;;;;;;;;;;5028336;28;20100;-67
2022/01/08 04:48:28;;;;;;;28.93;11.87;;;;;;;;;;5027613;28;20287;-67
2022/01/08 04:50:54;;;;;;;29.37;9.87;;;;;;;;;;5028189;28;20295;-67
2022/01/08 04:53:20;;;;;;;20.13;9.87;;;;;;;;;;5028520;28;20431;-68
2022/01/08 04:55:46;;;;;;;20.27;9.30;;;;;;;;;;5027911;28;20033;-67
2022/01/08 04:58:12;;;;;;;28.73;10.83;;;;;;;;;;5027652;28;20045;-67
2022/01/08 05:00:39;;;;;;;25.37;10.43;;;;;;;;;;5028173;28;20792;-67
2022/01/08 05:03:05;;;;;;;19.97;9.20;;;;;;;;;;5027470;28;20299;-67
2022/01/08 05:05:31;;;;;;;25.43;10.13;;;;;;;;;;5028914;28;20832;-68
2022/01/08 05:07:58;;;;;;;22.93;10.37;;;;;;;;;;5028826;28;20295;-67
2022/01/08 05:10:24;;;;;;;21.80;10.87;;;;;;;;;;5027616;28;20288;-67
2022/01/08 05:12:50;;;;;;;28.87;10.90;;;;;;;;;;5028345;28;20324;-67
2022/01/08 05:15:17;;;;;;;26.60;10.87;;;;;;;;;;5027940;28;20904;-67
2022/01/08 05:17:46;;;;;;;29.30;13.07;;;;;;;;;;5028428;28;20300;-67
2022/01/08 05:20:13;;;;;;;24.53;11.73;;;;;;;;;;5027570;28;20295;-67
2022/01/08 05:22:51;;;;;;;25.93;12.60;;;;;;;;;;5028298;28;20663;-66
2022/01/08 05:25:18;;;;;;;25.80;12.43;;;;;;;;;;5027275;28;20308;-67
2022/01/08 05:27:44;;;;;;;31.53;13.27;;;;;;;;;;5028350;28;20300;-67
2022/01/08 05:30:11;;;;;;;26.80;13.27;;;;;;;;;;5026926;28;20288;-67
2022/01/08 05:32:38;;;;;;;31.47;14.07;;;;;;;;;;5028354;28;20383;-67
2022/01/08 05:35:04;;;;;;;30.30;13.67;;;;;;;;;;5027882;28;20291;-67
2022/01/08 05:37:30;;;;;;;31.70;13.50;;;;;;;;;;5028643;28;20294;-67
2022/01/08 05:39:56;;;;;;;41.27;15.80;;;;;;;;;;5028251;28;20654;-67
2022/01/08 05:42:22;;;;;;;33.73;13.37;;;;;;;;;;5028383;28;20140;-67
2022/01/08 05:44:48;;;;;;;23.77;11.73;;;;;;;;;;5026469;28;20371;-67
2022/01/08 05:47:14;;;;;;;35.17;15.17;;;;;;;;;;5010481;28;20371;-67
2022/01/08 05:49:40;;;;;;;39.00;14.20;;;;;;;;;;5028063;28;20658;-68
2022/01/08 05:52:07;;;;;;;36.90;14.17;;;;;;;;;;5027217;28;20636;-66
2022/01/08 05:54:33;;;;;;;32.43;14.07;;;;;;;;;;5027721;28;20346;-67
2022/01/08 05:56:59;;;;;;;31.60;13.77;;;;;;;;;;5029327;28;20812;-67
2022/01/08 05:59:29;;;;;;;38.73;14.80;;;;;;;;;;5031642;28;20822;-67
2022/01/08 06:01:55;;;;;;;32.37;14.07;;;;;;;;;;5031464;28;20292;-67
2022/01/08 06:04:22;;;;;;;35.93;13.27;;;;;;;;;;5031173;28;20292;-68
2022/01/08 06:06:48;;;;;;;31.27;12.17;;;;;;;;;;5031743;28;20382;-68
2022/01/08 06:09:14;;;;;;;28.43;12.83;;;;;;;;;;5032308;28;20292;-66
2022/01/08 06:11:40;;;;;;;30.63;13.57;;;;;;;;;;5031528;28;20293;-67
2022/01/08 06:14:06;;;;;;;31.10;13.07;;;;;;;;;;5039185;28;20306;-66
2022/01/08 06:16:35;;;;;;;33.30;14.60;;;;;;;;;;5039284;28;20564;-67
2022/01/08 06:19:03;;;;;;;27.53;12.30;;;;;;;;;;5042148;28;20358;-67
2022/01/08 06:21:30;;;;;;;32.00;12.77;;;;;;;;;;5037531;28;20300;-66
2022/01/08 06:23:56;;;;;;;31.90;13.83;;;;;;;;;;5038366;28;20341;-67
2022/01/08 06:26:22;;;;;;;35.03;12.53;;;;;;;;;;5040197;28;20727;-67
2022/01/08 06:28:49;;;;;;;34.80;15.43;;;;;;;;;;5038306;28;20828;-67
2022/01/08 06:31:15;;;;;;;34.27;14.57;;;;;;;;;;5042101;28;20295;-67
2022/01/08 06:33:42;;;;;;;34.60;14.40;;;;;;;;;;5041189;28;20320;-67
2022/01/08 06:36:08;;;;;;;38.73;15.63;;;;;;;;;;5041156;28;20649;-66
2022/01/08 06:38:34;;;;;;;40.27;15.33;;;;;;;;;;5038643;28;20284;-66
2022/01/08 06:41:00;;;;;;;34.90;14.53;;;;;;;;;;5030312;28;20796;-67
2022/01/08 06:43:26;;;;;;;28.20;13.37;;;;;;;;;;5029781;28;20043;-66
2022/01/08 06:45:52;;;;;;;24.43;12.20;;;;;;;;;;5030853;28;20107;-66
2022/01/08 06:48:18;;;;;;;32.30;11.17;;;;;;;;;;5030532;28;20276;-66
2022/01/08 06:50:44;;;;;;;28.77;12.83;;;;;;;;;;5030081;28;20326;-66
2022/01/08 06:53:10;;;;;;;28.27;12.10;;;;;;;;;;5030639;28;20458;-67
2022/01/08 06:55:36;;;;;;;25.50;12.33;;;;;;;;;;5033692;28;20356;-66
2022/01/08 06:58:02;;;;;;;25.90;11.83;;;;;;;;;;5032974;28;20049;-67
2022/01/08 07:00:28;;;;;;;30.67;11.83;;;;;;;;;;5033656;28;20316;-67
2022/01/08 07:02:54;;;;;;;35.03;14.07;;;;;;;;;;5033045;28;20867;-65
2022/01/08 07:05:20;;;;;;;31.63;12.17;;;;;;;;;;5034247;28;20299;-66
2022/01/08 07:07:46;;;;;;;25.93;12.03;;;;;;;;;;5033444;28;20072;-66
2022/01/08 07:10:12;;;;;;;27.43;11.13;;;;;;;;;;5031752;28;20076;-66
2022/01/08 07:12:38;;;;;;;31.10;14.23;;;;;;;;;;5030046;28;20303;-66
2022/01/08 07:15:05;;;;;;;27.53;12.63;;;;;;;;;;5030541;28;20272;-66
2022/01/08 07:17:31;;;;;;;23.93;11.70;;;;;;;;;;5030390;28;20319;-67
2022/01/08 07:19:57;;;;;;;22.97;11.37;;;;;;;;;;5030264;28;20296;-66
2022/01/08 07:22:23;;;;;;;33.80;12.10;;;;;;;;;;5040259;28;20344;-66
2022/01/08 07:24:49;;;;;;;22.33;9.80;;;;;;;;;;5045187;28;20819;-67
2022/01/08 07:27:15;;;;;;;28.13;10.43;;;;;;;;;;5030564;28;20371;-67
2022/01/08 07:29:41;;;;;;;28.60;11.47;;;;;;;;;;5028813;28;20099;-66
2022/01/08 07:32:07;;;;;;;18.13;9.37;;;;;;;;;;5028990;28;20045;-66
2022/01/08 07:34:33;;;;;;;36.53;11.53;;;;;;;;;;5030352;28;20046;-66
2022/01/08 07:36:59;;;;;;;30.13;11.10;;;;;;;;;;5033943;28;20288;-66
2022/01/08 07:39:25;;;;;;;27.53;11.27;;;;;;;;;;5029922;28;20284;-67
2022/01/08 07:41:51;;;;;;;30.23;11.83;;;;;;;;;;5030491;28;20291;-66
2022/01/08 07:44:17;;;;;;;33.30;11.97;;;;;;;;;;5030935;28;20056;-66
2022/01/08 07:46:43;;;;;;;26.50;12.23;;;;;;;;;;5031717;28;20041;-66
2022/01/08 07:49:09;;;;;;;34.43;12.00;;;;;;;;;;5018102;28;20342;-66
2022/01/08 07:51:35;;;;;;;24.93;11.07;;;;;;;;;;5032938;28;20296;-66
2022/01/08 07:54:01;;;;;;;24.03;11.33;;;;;;;;;;5032730;28;20300;-66
2022/01/08 07:56:27;;;;;;;26.30;11.70;;;;;;;;;;5034084;28;20288;-66
2022/01/08 07:58:53;;;;;;;31.67;11.57;;;;;;;;;;5032029;28;20705;-66
2022/01/08 08:01:21;;;;;;;30.27;12.93;;;;;;;;;;5031980;28;20276;-66
2022/01/08 08:03:47;;;;;;;24.47;12.10;;;;;;;;;;5033666;28;20041;-66
2022/01/08 08:06:13;;;;;;;23.50;11.50;;;;;;;;;;5029750;28;20347;-66
2022/01/08 08:08:39;;;;;;;32.87;12.93;;;;;;;;;;5030473;28;20370;-67
2022/01/08 08:11:05;;;;;;;26.43;10.67;;;;;;;;;;5031422;28;20299;-67
2022/01/08 08:13:31;;;;;;;29.70;12.57;;;;;;;;;;5030546;28;20284;-66
2022/01/08 08:15:57;;;;;;;23.97;10.87;;;;;;;;;;5033162;28;20358;-67
2022/01/08 08:18:23;;;;;;;27.53;10.50;;;;;;;;;;5033081;28;20328;-66
2022/01/08 08:20:49;;;;;;;29.73;10.67;;;;;;;;;;5017739;28;20587;-66
2022/01/08 08:23:15;;;;;;;26.47;10.57;;;;;;;;;;5030001;28;20049;-66
2022/01/08 08:25:41;;;;;;;23.53;9.50;;;;;;;;;;5029865;28;20320;-66
2022/01/08 08:28:07;;;;;;;26.67;11.27;;;;;;;;;;5031288;28;20223;-66
2022/01/08 08:30:34;;;;;;;21.47;10.47;;;;;;;;;;5027986;28;20288;-66
2022/01/08 08:33:00;;;;;;;27.03;10.37;;;;;;;;;;5026125;28;20314;-66
2022/01/08 08:35:27;;;;;;;31.37;10.73;;;;;;;;;;5026796;28;20292;-66
2022/01/08 08:37:53;;;;;;;29.90;9.67;;;;;;;;;;5015360;28;20301;-66
2022/01/08 08:40:19;;;;;;;38.63;10.87;;;;;;;;;;5040391;28;20288;-67
2022/01/08 08:42:45;;;;;;;28.53;11.07;;;;;;;;;;5042963;28;20509;-67
2022/01/08 08:45:11;;;;;;;29.70;12.27;;;;;;;;;;5032274;28;20132;-66
2022/01/08 08:47:39;;;;;;;31.50;12.70;;;;;;;;;;5026667;28;20288;-66
2022/01/08 08:50:06;;;;;;;32.97;14.00;;;;;;;;;;5011917;28;20291;-66
2022/01/08 08:52:32;;;;;;;31.00;12.40;;;;;;;;;;5039792;28;20883;-66
2022/01/08 08:54:59;;;;;;;29.47;14.20;;;;;;;;;;5040134;28;20666;-66
2022/01/08 08:57:25;;;;;;;42.07;14.83;;;;;;;;;;5036109;28;20284;-66
2022/01/08 08:59:51;;;;;;;31.57;15.50;;;;;;;;;;5036691;28;20279;-66
2022/01/08 09:02:17;;;;;;;36.57;15.17;;;;;;;;;;5034805;28;20361;-66
2022/01/08 09:04:43;;;;;;;40.60;17.17;;;;;;;;;;5032521;28;20382;-67
2022/01/08 09:07:10;;;;;;;42.77;18.23;;;;;;;;;;5032797;28;20358;-66
2022/01/08 09:09:36;;;;;;;34.63;17.33;;;;;;;;;;5029050;28;20298;-66
2022/01/08 09:12:02;;;;;;;37.00;16.67;;;;;;;;;;5031234;28;20283;-66
2022/01/08 09:14:28;;;;;;;44.77;19.63;;;;;;;;;;5032976;28;20725;-66
2022/01/08 09:16:57;;;;;;;27.00;15.73;;;;;;;;;;5028581;28;20399;-66
2022/01/08 09:19:23;;;;;;;39.40;18.63;;;;;;;;;;5026593;28;20049;-67
2022/01/08 09:21:49;;;;;;;37.17;17.80;;;;;;;;;;5029407;28;20283;-67
2022/01/08 09:24:18;;;;;;;30.40;15.47;;;;;;;;;;5025677;28;20306;-67
2022/01/08 09:26:44;;;;;;;34.33;16.27;;;;;;;;;;5027986;28;20320;-66
2022/01/08 09:29:11;;;;;;;40.90;16.53;;;;;;;;;;5028793;28;20052;-67
2022/01/08 09:31:38;;;;;;;36.77;17.37;;;;;;;;;;5028974;28;20300;-67
2022/01/08 09:34:04;;;;;;;40.40;18.37;;;;;;;;;;5036651;28;20781;-67
2022/01/08 09:36:31;;;;;;;39.17;19.47;;;;;;;;;;5034229;28;20367;-67
2022/01/08 09:38:57;;;;;;;27.70;17.00;;;;;;;;;;5040716;28;20396;-67
2022/01/08 09:41:23;;;;;;;32.50;16.33;;;;;;;;;;5033834;28;20368;-68
2022/01/08 09:43:49;;;;;;;26.10;16.40;;;;;;;;;;5029780;28;20363;-68
2022/01/08 09:46:15;;;;;;;34.03;17.77;;;;;;;;;;5034147;28;20041;-69
2022/01/08 09:48:42;;;;;;;35.50;16.83;;;;;;;;;;5033945;28;20595;-69
2022/01/08 09:51:08;;;;;;;35.20;17.27;;;;;;;;;;5032786;28;20285;-68
2022/01/08 09:53:35;;;;;;;35.80;18.37;;;;;;;;;;5048475;28;20292;-68
2022/01/08 09:56:02;;;;;;;35.00;18.20;;;;;;;;;;5037316;28;20492;-68
2022/01/08 09:58:28;;;;;;;39.83;18.93;;;;;;;;;;5038521;28;20288;-68
2022/01/08 10:00:54;;;;;;;33.47;18.43;;;;;;;;;;5030497;28;20292;-68
2022/01/08 10:03:21;;;;;;;33.77;19.87;;;;;;;;;;5044674;28;20052;-68
2022/01/08 10:05:54;;;;;;;37.13;21.53;;;;;;;;;;5032101;28;20120;-68
2022/01/08 10:08:24;;;;;;;35.20;20.37;;;;;;;;;;5034330;28;20299;-68
2022/01/08 10:10:57;;;;;;;41.67;20.13;;;;;;;;;;5044981;28;20820;-68
2022/01/08 10:13:29;;;;;;;31.27;16.83;;;;;;;;;;5042224;28;20354;-68
2022/01/08 10:18:41;;;;;;;27.50;13.73;;;;;;;;;;5030412;28;20698;-68
2022/01/08 10:21:19;;;;;;;26.70;13.30;;;;;;;;;;5026060;28;20593;-69
2022/01/08 10:23:52;;;;;;;19.47;9.40;;;;;;;;;;5033647;28;20091;-69
2022/01/08 10:26:20;;;;;;;14.93;8.33;;;;;;;;;;5028787;28;20041;-69
2022/01/08 10:28:48;;;;;;;15.87;8.83;;;;;;;;;;5029440;28;20045;-69
2022/01/08 10:31:14;;;;;;;16.63;7.87;;;;;;;;;;5030463;28;20048;-69
2022/01/08 10:33:40;;;;;;;15.03;6.47;;;;;;;;;;5028732;28;20068;-69
2022/01/08 10:36:06;;;;;;;17.80;9.67;;;;;;;;;;5027953;28;20071;-68
2022/01/08 10:38:33;;;;;;;19.13;8.67;;;;;;;;;;5045064;28;20195;-68
2022/01/08 10:40:59;;;;;;;17.27;7.30;;;;;;;;;;5028747;28;20045;-68
2022/01/08 10:43:33;;;;;;;17.43;8.57;;;;;;;;;;5028170;28;20690;-69
2022/01/08 10:46:11;;;;;;;15.35;9.00;;;;;;;;;;5040157;28;20111;-68
2022/01/08 10:48:38;;;;;;;25.37;9.33;;;;;;;;;;5036122;28;20056;-69
2022/01/08 10:51:12;;;;;;;17.97;9.80;;;;;;;;;;5030014;28;20472;-69
2022/01/08 10:54:05;;;;;;;15.40;9.27;;;;;;;;;;5029617;28;20049;-68
2022/01/08 10:56:35;;;;;;;27.80;11.00;;;;;;;;;;5046927;28;20427;-68
2022/01/08 10:59:08;;;;;;;21.60;11.00;;;;;;;;;;5050725;28;20072;-69
2022/01/08 11:01:46;;;;;;;16.93;9.00;;;;;;;;;;5049968;28;20059;-69
2022/01/08 11:04:15;;;;;;;13.77;8.60;;;;;;;;;;5032156;28;20437;-69
2022/01/08 11:06:52;;;;;;;17.90;9.53;;;;;;;;;;5029106;28;20056;-70
2022/01/08 11:09:18;;;;;;;16.57;9.40;;;;;;;;;;5028822;28;20773;-69
2022/01/08 11:11:44;;;;;;;18.67;10.17;;;;;;;;;;5038920;28;20069;-70
2022/01/08 11:14:21;;;;;;;18.00;9.60;;;;;;;;;;5048921;28;20088;-69
2022/01/08 11:16:47;;;;;;;13.63;8.73;;;;;;;;;;5049154;28;20140;-70
2022/01/08 11:19:13;;;;;;;27.73;9.53;;;;;;;;;;5048972;28;20098;-70
2022/01/08 11:21:39;;;;;;;20.17;9.47;;;;;;;;;;5030668;28;20052;-70
2022/01/08 11:24:06;;;;;;;18.97;10.67;;;;;;;;;;5030144;28;20049;-70
2022/01/08 11:26:32;;;;;;;23.23;11.37;;;;;;;;;;5044558;28;20602;-70
2022/01/08 11:29:00;;;;;;;22.10;10.50;;;;;;;;;;5041547;28;20116;-70
2022/01/08 11:31:31;;;;;;;19.13;11.00;;;;;;;;;;5018055;28;20145;-70
2022/01/08 11:34:02;;;;;;;22.57;12.17;;;;;;;;;;5036225;28;20536;-70
2022/01/08 11:36:29;;;;;;;20.00;11.63;;;;;;;;;;5035804;28;20072;-70
2022/01/08 11:38:56;;;;;;;20.40;11.93;;;;;;;;;;5041819;28;20113;-70
2022/01/08 11:41:23;;;;;;;19.67;11.70;;;;;;;;;;5037440;28;20045;-70
2022/01/08 11:43:50;;;;;;;19.60;11.73;;;;;;;;;;5042810;28;20454;-70
2022/01/08 11:46:17;;;;;;;21.07;11.77;;;;;;;;;;5038549;28;20049;-70
2022/01/08 11:48:45;;;;;;;24.80;12.60;;;;;;;;;;5036034;28;20049;-70
2022/01/08 11:51:31;;;;;;;23.20;12.77;;;;;;;;;;5031918;28;20051;-70
2022/01/08 11:53:58;;;;;;;24.27;12.43;;;;;;;;;;5033487;28;20141;-70
2022/01/08 11:56:30;;;;;;;29.50;13.83;;;;;;;;;;5034334;28;20041;-70
2022/01/08 11:59:04;;;;;;;28.10;15.50;;;;;;;;;;5030694;28;20573;-70
2022/01/08 12:01:30;;;;;;;21.93;14.07;;;;;;;;;;5016603;28;20033;-70
2022/01/08 12:03:56;;;;;;;27.43;15.23;;;;;;;;;;5011728;28;20096;-70
2022/01/08 12:09:17;;;;;;;26.60;17.47;;;;;;;;;;5041817;28;20498;-70
2022/01/08 12:11:44;;;;;;;29.53;17.83;;;;;;;;;;5027528;28;20492;-70
2022/01/08 12:14:11;;;;;;;29.80;19.63;;;;;;;;;;5028235;28;20049;-70
2022/01/08 12:16:38;;;;;;;31.30;20.20;;;;;;;;;;5034707;28;20080;-70
2022/01/08 12:19:05;;;;;;;29.40;20.03;;;;;;;;;;5027616;28;20129;-71
2022/01/08 12:21:34;;;;;;;29.90;18.97;;;;;;;;;;5027316;28;20099;-70
2022/01/08 12:24:20;;;;;;;31.13;19.80;;;;;;;;;;5027451;28;20496;-71
2022/01/08 12:26:46;;;;;;;27.87;18.90;;;;;;;;;;5025147;28;20107;-70
2022/01/08 12:29:32;;;;;;;29.73;19.23;;;;;;;;;;5034613;28;20407;-70
2022/01/08 12:32:17;;;;;;;26.47;18.93;;;;;;;;;;5033235;28;20045;-71
2022/01/08 12:34:47;;;;;;;36.70;20.83;;;;;;;;;;5033083;28;20088;-70
2022/01/08 12:37:13;;;;;;;25.47;20.43;;;;;;;;;;5032829;28;20057;-71
2022/01/08 12:39:43;;;;;;;26.37;19.10;;;;;;;;;;5032605;28;20048;-71
2022/01/08 12:42:35;;;;;;;31.03;21.70;;;;;;;;;;5028290;28;20042;-70
2022/01/08 12:45:19;;;;;;;31.40;20.57;;;;;;;;;;5019294;28;20054;-70
2022/01/08 12:48:09;;;;;;;29.17;20.38;;;;;;;;;;5026193;28;20118;-71
2022/01/08 12:50:39;;;;;;;37.43;20.80;;;;;;;;;;5013036;28;20045;-70
2022/01/08 12:53:08;;;;;;;27.57;17.50;;;;;;;;;;5034184;28;20412;-70
2022/01/08 12:55:38;;;;;;;25.57;17.70;;;;;;;;;;5032991;28;20091;-71
2022/01/08 12:58:15;;;;;;;26.17;19.13;;;;;;;;;;5030457;28;20076;-71
2022/01/08 13:00:54;;;;;;;32.50;17.97;;;;;;;;;;5026441;28;20566;-71
2022/01/08 13:03:22;;;;;;;25.17;16.90;;;;;;;;;;5042972;28;20049;-71
2022/01/08 13:05:48;;;;;;;28.83;19.37;;;;;;;;;;5022663;28;20495;-71
2022/01/08 13:08:21;;;;;;;25.70;17.97;;;;;;;;;;5049550;28;20048;-71
2022/01/08 13:10:47;;;;;;;33.72;19.77;;;;;;;;;;5030617;28;20041;-71
2022/01/08 13:13:13;;;;;;;24.33;18.70;;;;;;;;;;5032696;28;20057;-71
2022/01/08 13:15:39;;;;;;;33.70;20.07;;;;;;;;;;5026662;28;20467;-71
2022/01/08 13:18:23;;;;;;;27.00;18.70;;;;;;;;;;5024383;28;20061;-70
2022/01/08 13:20:49;;;;;;;;;;;;;;;;;;5031803;28;20148;-71
2022/01/08 13:23:15;;;;;;;31.60;16.97;;;;;;;;;;5031597;28;20290;-70
2022/01/08 13:25:41;;;;;;;26.60;17.80;;;;;;;;;;5032242;28;20049;-70
2022/01/08 13:28:07;;;;;;;29.60;17.80;;;;;;;;;;5039184;28;20037;-71
2022/01/08 13:30:36;;;;;;;30.57;17.80;;;;;;;;;;5038273;28;20049;-71
2022/01/08 13:33:04;;;;;;;26.30;17.80;;;;;;;;;;5035114;28;20116;-70
2022/01/08 13:35:30;;;;;;;34.77;18.07;;;;;;;;;;5029480;28;20415;-70
2022/01/08 13:37:56;;;;;;;27.10;17.53;;;;;;;;;;5013109;28;20054;-70
2022/01/08 13:40:25;;;;;;;34.13;18.30;;;;;;;;;;5030400;28;20061;-70
2022/01/08 13:42:52;;;;;;;26.43;16.80;;;;;;;;;;5029861;28;20057;-70
2022/01/08 13:45:20;;;;;;;23.90;16.00;;;;;;;;;;5028816;28;20057;-70
2022/01/08 13:47:48;;;;;;;22.53;15.27;;;;;;;;;;5030619;28;20147;-70
2022/01/08 13:50:19;;;;;;;30.93;16.70;;;;;;;;;;5030520;28;20046;-70
2022/01/08 13:52:48;;;;;;;33.67;16.53;;;;;;;;;;5021366;28;20164;-70
2022/01/08 13:55:35;;;;;;;30.37;17.30;;;;;;;;;;5028365;28;20045;-70
2022/01/08 13:58:07;;;;;;;27.97;16.17;;;;;;;;;;5029125;28;20385;-70
2022/01/08 14:00:34;;;;;;;31.40;17.60;;;;;;;;;;5028666;28;20046;-70
2022/01/08 14:03:00;;;;;;;32.07;17.93;;;;;;;;;;5030420;28;20056;-70
2022/01/08 14:05:27;;;;;;;34.77;19.67;;;;;;;;;;5029482;28;20049;-71
2022/01/08 14:07:59;;;;;;;31.67;18.23;;;;;;;;;;5029797;28;20132;-70
2022/01/08 14:10:25;;;;;;;31.83;19.57;;;;;;;;;;5028798;28;20758;-70
2022/01/08 14:13:20;;;;;;;35.87;19.23;;;;;;;;;;5029906;28;20049;-70
2022/01/08 14:15:49;;;;;;;37.63;19.37;;;;;;;;;;5024953;28;20073;-71
2022/01/08 14:18:16;;;;;;;41.07;20.47;;;;;;;;;;5029490;28;20081;-70
2022/01/08 14:20:43;;;;;;;40.70;21.30;;;;;;;;;;5030015;28;20491;-70
2022/01/08 14:23:29;;;;;;;32.70;18.00;;;;;;;;;;5028093;28;20042;-69
2022/01/08 14:25:55;;;;;;;31.33;17.90;;;;;;;;;;5028401;28;20407;-69
2022/01/08 14:28:29;;;;;;;31.13;18.30;;;;;;;;;;5030192;28;20088;-70
2022/01/08 14:31:18;;;;;;;33.50;18.30;;;;;;;;;;5029889;28;20047;-70
2022/01/08 14:34:04;;;;;;;34.73;18.13;;;;;;;;;;5029693;28;20072;-70
2022/01/08 14:36:59;;;;;;;37.60;17.63;;;;;;;;;;5029619;28;20041;-70
2022/01/08 14:39:35;;;;;;;32.83;17.40;;;;;;;;;;5020995;28;20046;-69
2022/01/08 14:42:02;;;;;;;34.70;18.20;;;;;;;;;;5028927;28;20054;-71
2022/01/08 14:44:29;;;;;;;35.30;16.63;;;;;;;;;;5029815;28;20045;-71
2022/01/08 14:46:56;;;;;;;33.37;16.03;;;;;;;;;;5028294;28;20053;-71
2022/01/08 14:49:22;;;;;;;34.27;16.20;;;;;;;;;;5030404;28;20048;-71
2022/01/08 14:51:49;;;;;;;39.90;18.23;;;;;;;;;;5030228;28;20050;-71